首页
METAR-TAF:

METAR-TAF

机场 :

俄斯特拉发, 捷克共和国

纬度: 49-41N, 经度: 018-07E, 海拔: 256米

当前天气观测

该预报发布于23分钟前的14:30 UTC
风速15节,风向西转西南
温度 0°C
湿度 80%
气压 1039 hPa
能见度10公里或以上
少量云层高于1400英尺

METAR: LKMT 211430Z 24015KT 9999 FEW014 00/M03 Q1039 NOSIG

时间: 15:53 (14:53 UTC)

预报

该预报发布于3小时和53分钟前的11:00 UTC
预报有效从21日的 12点(UTC)到 22日的 18点(UTC)
风速14节,风向南转西南
能见度10公里或以上
1500米以下无云,无积雨云
短暂存在
从 21日的 12点(UTC)到 22日的 09点(UTC)
风速18节,风向西南,有时为28节阵风
能见度10公里或以上
散云层高于1300英尺
成为
从 22日的 09点(UTC)到 22日的 12点(UTC)
多云层高于2000英尺
成为
从 22日的 12点(UTC)到 22日的 15点(UTC)
风速6节,风向
能見度: 7000
多云层高于1300英尺

TAF: LKMT 211100Z 2112/2218 21014KT CAVOK TEMPO 2112/2209 23018G28KT 9999 SCT013 BECMG 2209/2212 BKN020 BECMG 2212/2215 35006KT 7000 BKN013

超过4000个机场的气象观测和天气预报(METAR&TAF报告)。

可查询的气象台以黄色和红色小点在地图上表示。

将鼠标移到小点上方,可查看气象台名称。

然后点击查看天气观测和预报。

如需切换地图:点击带黑十字的绿色按钮放大地图;点击带横线的绿色按钮缩小地图;或者点击绿色箭头查看邻近地区的地图。


METAR-TAF: